Main page
METAR-TAF:

METAR-TAF

Airports :

A Coruña Airport

A Coruña, Spain

latitude: 43-18N, longitude: 008-23W, elevation: 97 m

Current weather observation

The report was made 30 minutes ago, at 20:30 UTC
Wind 9 kt from the East/Northeast
Temperature 9°C
Humidity 53%
Pressure 1025 hPa
Visibility 10 km or more
no clouds below 1500 m and no cumulonimbus

METAR: LECO 112030Z 07009KT CAVOK 09/M00 Q1025 NOSIG

Time: 23:00 (21:00 UTC)

Forecast

The report was made 1 hour and 0 minutes ago, at 20:00 UTC
Forecast valid from 11 at 21 UTC to 12 at 21 UTC
Wind 6 kt from the Northeast
Visibility 10 km or more
no clouds below 1500 m and no cumulonimbus

TAF: LECO 112000Z 1121/1221 04006KT CAVOK TX18/1215Z TN02/1206Z

Weather observations and forecasts of more than 4000 airports (METAR and TAF reports).

The available stations are represented by yellow and red dots on the map.

Hover mouse over dot to see the name of the station.

Then click to see weather observations and forecasts.

To change the map : click on the green buttons with a black cross to zoom in, on the green button with a dash to zoom out, or on the green arrows for adjacent maps.


METAR-TAF: